Terminal Aerodrome Forecast
Issued by NWS Pocatello, ID

Home | Current Version | Previous Version | Text Only | Print | Product List | Glossary On
Versions: 1 2 3 4 5 6 7 8 9 10 11 12 13 14 15 16 17 18 19 20 21
303
FTUS45 KPIH 281738
TAFBYI
TAF
KBYI 281738Z 2818/2918 28014G24KT P6SM SCT015 BKN070
     FM290300 26008KT P6SM SCT070=

USA.gov is the U.S. government's official web portal to all federal, state and local government web resources and services.